createdAt,value
2023-05-25T00:01:01.968Z,558.00
2023-05-25T00:01:54.285Z,559.00
2023-05-25T00:02:53.336Z,560.00
2023-05-25T00:03:53.119Z,563.00
2023-05-25T00:04:52.915Z,560.00
2023-05-25T00:05:52.917Z,557.00
2023-05-25T00:06:53.036Z,567.00
2023-05-25T00:07:52.952Z,561.00
2023-05-25T00:08:52.956Z,558.00
2023-05-25T00:09:52.960Z,560.00
2023-05-25T00:10:52.877Z,558.00
2023-05-25T00:11:52.858Z,549.00
2023-05-25T00:12:52.859Z,554.00
2023-05-25T00:13:52.810Z,551.00
2023-05-25T00:14:52.826Z,546.00
2023-05-25T00:15:52.999Z,548.00
2023-05-25T00:16:53.073Z,552.00
2023-05-25T00:17:52.875Z,560.00
2023-05-25T00:18:52.842Z,554.00
2023-05-25T00:19:52.882Z,559.00
2023-05-25T00:20:53.221Z,552.00
2023-05-25T00:21:53.055Z,551.00
2023-05-25T00:22:53.051Z,551.00
2023-05-25T00:23:52.958Z,551.00
2023-05-25T00:24:52.919Z,544.00
2023-05-25T00:25:52.755Z,552.00
2023-05-25T00:26:52.801Z,548.00
2023-05-25T00:27:52.785Z,548.00
2023-05-25T00:28:52.773Z,543.00
2023-05-25T00:29:52.773Z,543.00
2023-05-25T00:30:52.788Z,543.00
2023-05-25T00:31:52.728Z,541.00
2023-05-25T00:32:52.768Z,543.00
2023-05-25T00:33:52.725Z,539.00
2023-05-25T00:34:52.698Z,541.00
2023-05-25T00:35:52.717Z,543.00
2023-05-25T00:36:52.924Z,546.00
2023-05-25T00:37:52.989Z,541.00
2023-05-25T00:38:52.892Z,544.00
2023-05-25T00:39:52.855Z,542.00
2023-05-25T00:40:52.838Z,537.00
2023-05-25T00:41:52.724Z,536.00
2023-05-25T00:42:52.656Z,540.00
2023-05-25T00:43:52.670Z,541.00
2023-05-25T00:44:52.616Z,545.00
2023-05-25T00:45:52.626Z,534.00
2023-05-25T00:46:52.765Z,540.00
2023-05-25T00:47:52.941Z,543.00
2023-05-25T00:48:52.602Z,544.00
2023-05-25T00:49:52.630Z,535.00
2023-05-25T00:50:52.623Z,541.00
2023-05-25T00:51:52.616Z,545.00
2023-05-25T00:52:52.966Z,534.00
2023-05-25T00:53:52.585Z,535.00
2023-05-25T00:54:52.591Z,545.00
2023-05-25T00:55:52.551Z,546.00
2023-05-25T00:56:52.543Z,546.00
2023-05-25T00:57:52.752Z,541.00
2023-05-25T00:58:52.557Z,545.00
2023-05-25T00:59:52.564Z,550.00
2023-05-25T01:00:52.493Z,549.00
2023-05-25T01:01:52.569Z,544.00
2023-05-25T01:02:53.121Z,539.00
2023-05-25T01:03:52.806Z,542.00
2023-05-25T01:04:52.494Z,536.00
2023-05-25T01:05:52.506Z,539.00
2023-05-25T01:06:52.482Z,533.00
2023-05-25T01:07:52.463Z,546.00
2023-05-25T01:08:52.771Z,538.00
2023-05-25T01:09:52.707Z,536.00
2023-05-25T01:10:52.714Z,539.00
2023-05-25T01:11:52.628Z,537.00
2023-05-25T01:12:52.686Z,534.00
2023-05-25T01:13:52.919Z,534.00
2023-05-25T01:14:52.623Z,528.00
2023-05-25T01:15:52.605Z,532.00
2023-05-25T01:16:52.486Z,529.00
2023-05-25T01:17:52.639Z,530.00
2023-05-25T01:18:52.402Z,534.00
2023-05-25T01:20:08.959Z,537.00
2023-05-25T01:20:53.515Z,536.00
2023-05-25T01:21:52.358Z,528.00
2023-05-25T01:22:52.374Z,537.00
2023-05-25T01:23:52.636Z,532.00
2023-05-25T01:24:52.704Z,538.00
2023-05-25T01:25:52.556Z,538.00
2023-05-25T01:26:52.338Z,535.00
2023-05-25T01:27:52.370Z,534.00
2023-05-25T01:28:52.301Z,529.00
2023-05-25T01:29:52.359Z,519.00
2023-05-25T01:30:52.485Z,525.00
2023-05-25T01:31:52.570Z,536.00
2023-05-25T01:32:53.188Z,531.00
2023-05-25T01:33:52.298Z,523.00
2023-05-25T01:34:52.310Z,527.00
2023-05-25T01:35:52.303Z,533.00
2023-05-25T01:36:52.306Z,534.00
2023-05-25T01:37:52.272Z,526.00
2023-05-25T01:38:52.270Z,526.00
2023-05-25T01:39:52.272Z,523.00
2023-05-25T01:40:52.288Z,530.00
2023-05-25T01:41:52.233Z,525.00
2023-05-25T01:42:52.505Z,528.00
2023-05-25T01:43:52.532Z,526.00
2023-05-25T01:44:52.489Z,525.00
2023-05-25T01:45:52.388Z,524.00
2023-05-25T01:46:52.333Z,525.00
2023-05-25T01:47:52.279Z,520.00
2023-05-25T01:48:52.213Z,522.00
2023-05-25T01:49:52.221Z,522.00
2023-05-25T01:50:52.206Z,518.00
2023-05-25T01:51:52.343Z,517.00
2023-05-25T01:52:52.153Z,520.00
2023-05-25T01:53:52.170Z,514.00
2023-05-25T01:54:52.175Z,526.00
2023-05-25T01:55:52.130Z,516.00
2023-05-25T01:56:52.131Z,526.00
2023-05-25T01:57:52.138Z,519.00
2023-05-25T01:58:52.111Z,522.00
2023-05-25T01:59:52.179Z,524.00
2023-05-25T02:00:52.122Z,521.00
2023-05-25T02:01:53.286Z,517.00
2023-05-25T02:02:52.204Z,523.00
2023-05-25T02:03:52.152Z,524.00
2023-05-25T02:04:52.093Z,518.00
2023-05-25T02:05:52.102Z,518.00
2023-05-25T02:06:52.067Z,513.00
2023-05-25T02:07:52.065Z,517.00
2023-05-25T02:08:52.388Z,515.00
2023-05-25T02:09:52.332Z,516.00
2023-05-25T02:10:52.067Z,514.00
2023-05-25T02:11:52.036Z,519.00
2023-05-25T02:12:52.068Z,523.00
2023-05-25T02:13:52.060Z,518.00
2023-05-25T02:14:52.258Z,523.00
2023-05-25T02:15:52.338Z,532.00
2023-05-25T02:16:52.068Z,522.00
2023-05-25T02:17:52.109Z,519.00
2023-05-25T02:18:52.081Z,522.00
2023-05-25T02:19:52.179Z,521.00
2023-05-25T02:20:52.149Z,516.00
2023-05-25T02:21:52.130Z,513.00
2023-05-25T02:22:52.166Z,519.00
2023-05-25T02:23:52.173Z,520.00
2023-05-25T02:24:52.181Z,520.00
2023-05-25T02:25:52.469Z,508.00
2023-05-25T02:26:52.468Z,511.00
2023-05-25T02:27:52.508Z,512.00
2023-05-25T02:28:52.466Z,507.00
2023-05-25T02:29:52.419Z,513.00
2023-05-25T02:30:52.343Z,516.00
2023-05-25T02:31:52.301Z,514.00
2023-05-25T02:32:52.320Z,517.00
2023-05-25T02:33:52.299Z,511.00
2023-05-25T02:34:52.305Z,514.00
2023-05-25T02:35:52.321Z,519.00
2023-05-25T02:36:52.334Z,522.00
2023-05-25T02:37:52.320Z,519.00
2023-05-25T02:38:52.487Z,517.00
2023-05-25T02:39:52.517Z,514.00
2023-05-25T02:40:52.381Z,512.00
2023-05-25T02:41:52.510Z,521.00
2023-05-25T02:42:52.405Z,516.00
2023-05-25T02:43:52.391Z,515.00
2023-05-25T02:44:52.418Z,520.00
2023-05-25T02:45:52.452Z,519.00
2023-05-25T02:46:52.505Z,522.00
2023-05-25T02:47:52.474Z,511.00
2023-05-25T02:48:52.515Z,520.00
2023-05-25T02:49:52.516Z,520.00
2023-05-25T02:50:52.580Z,522.00
2023-05-25T02:51:52.515Z,521.00
2023-05-25T02:52:52.523Z,520.00
2023-05-25T02:53:52.532Z,516.00
2023-05-25T02:54:52.539Z,515.00
2023-05-25T02:55:52.539Z,514.00
2023-05-25T02:56:52.656Z,528.00
2023-05-25T02:57:52.612Z,523.00
2023-05-25T02:58:52.656Z,518.00
2023-05-25T02:59:52.581Z,519.00
2023-05-25T03:00:52.744Z,521.00
2023-05-25T03:01:52.601Z,514.00
2023-05-25T03:02:52.688Z,519.00
2023-05-25T03:03:52.800Z,511.00
2023-05-25T03:04:52.660Z,507.00
2023-05-25T03:05:52.670Z,511.00
2023-05-25T03:06:52.733Z,512.00
2023-05-25T03:07:52.685Z,523.00
2023-05-25T03:08:52.740Z,512.00
2023-05-25T03:09:52.758Z,520.00
2023-05-25T03:10:52.808Z,521.00
2023-05-25T03:11:52.776Z,524.00
2023-05-25T03:12:52.779Z,515.00
2023-05-25T03:13:52.771Z,515.00
2023-05-25T03:14:52.787Z,518.00
2023-05-25T03:15:52.785Z,513.00
2023-05-25T03:16:54.049Z,510.00
2023-05-25T03:17:52.873Z,511.00
2023-05-25T03:18:52.823Z,512.00
2023-05-25T03:19:52.972Z,508.00
2023-05-25T03:20:52.863Z,505.00
2023-05-25T03:21:55.812Z,513.00
2023-05-25T03:22:52.929Z,523.00
2023-05-25T03:23:52.869Z,515.00
2023-05-25T03:24:52.891Z,518.00
2023-05-25T03:25:52.917Z,511.00
2023-05-25T03:26:52.871Z,523.00
2023-05-25T03:27:52.855Z,515.00
2023-05-25T03:28:52.872Z,512.00
2023-05-25T03:29:52.816Z,520.00
2023-05-25T03:30:52.894Z,518.00
2023-05-25T03:31:52.890Z,519.00
2023-05-25T03:32:52.815Z,513.00
2023-05-25T03:33:55.705Z,513.00
2023-05-25T03:34:53.033Z,514.00
2023-05-25T03:35:53.069Z,514.00
2023-05-25T03:36:52.879Z,511.00
2023-05-25T03:37:52.771Z,511.00
2023-05-25T03:38:52.793Z,509.00
2023-05-25T03:39:52.757Z,527.00
2023-05-25T03:40:52.790Z,515.00
2023-05-25T03:41:53.269Z,521.00
2023-05-25T03:42:52.979Z,518.00
2023-05-25T03:43:53.036Z,521.00
2023-05-25T03:44:52.891Z,518.00
2023-05-25T03:45:52.964Z,516.00
2023-05-25T03:46:53.013Z,515.00
2023-05-25T03:47:52.976Z,515.00
2023-05-25T03:48:52.938Z,516.00
2023-05-25T03:49:52.812Z,515.00
2023-05-25T03:50:52.773Z,513.00
2023-05-25T03:51:52.721Z,517.00
2023-05-25T03:52:52.634Z,518.00
2023-05-25T03:53:52.644Z,514.00
2023-05-25T03:54:52.644Z,519.00
2023-05-25T03:55:52.655Z,519.00
2023-05-25T03:56:52.681Z,512.00
2023-05-25T03:57:52.649Z,511.00
2023-05-25T03:58:52.595Z,514.00
2023-05-25T03:59:52.673Z,518.00
2023-05-25T04:00:52.625Z,514.00
2023-05-25T04:01:52.606Z,509.00
2023-05-25T04:02:52.671Z,513.00
2023-05-25T04:03:52.999Z,515.00
2023-05-25T04:04:52.849Z,517.00
2023-05-25T04:05:52.837Z,518.00
2023-05-25T04:06:52.848Z,513.00
2023-05-25T04:07:52.552Z,517.00
2023-05-25T04:08:52.575Z,516.00
2023-05-25T04:09:52.566Z,522.00
2023-05-25T04:10:52.647Z,524.00
2023-05-25T04:11:52.551Z,519.00
2023-05-25T04:12:52.533Z,514.00
2023-05-25T04:13:52.541Z,526.00
2023-05-25T04:14:52.519Z,519.00
2023-05-25T04:15:52.560Z,521.00
2023-05-25T04:16:52.546Z,522.00
2023-05-25T04:17:52.560Z,522.00
2023-05-25T04:18:52.470Z,522.00
2023-05-25T04:19:52.700Z,526.00
2023-05-25T04:20:52.467Z,524.00
2023-05-25T04:21:52.456Z,524.00
2023-05-25T04:22:52.468Z,524.00
2023-05-25T04:23:52.477Z,529.00
2023-05-25T04:24:52.452Z,523.00
2023-05-25T04:25:52.433Z,521.00
2023-05-25T04:26:52.457Z,518.00
2023-05-25T04:27:52.461Z,526.00
2023-05-25T04:28:52.406Z,525.00
2023-05-25T04:29:55.705Z,517.00
2023-05-25T04:30:52.810Z,517.00
2023-05-25T04:31:52.707Z,517.00
2023-05-25T04:32:52.662Z,517.00
2023-05-25T04:33:52.614Z,519.00
2023-05-25T04:34:52.618Z,519.00
2023-05-25T04:35:52.672Z,525.00
2023-05-25T04:36:52.675Z,522.00
2023-05-25T04:37:52.432Z,514.00
2023-05-25T04:38:52.402Z,516.00
2023-05-25T04:39:52.387Z,517.00
2023-05-25T04:40:52.392Z,513.00
2023-05-25T04:41:52.313Z,520.00
2023-05-25T04:42:52.318Z,513.00
2023-05-25T04:44:05.857Z,522.00
2023-05-25T04:44:53.367Z,522.00
2023-05-25T04:45:52.339Z,522.00
2023-05-25T04:46:52.342Z,519.00
2023-05-25T04:47:52.316Z,521.00
2023-05-25T04:48:52.259Z,515.00
2023-05-25T04:49:52.278Z,517.00
2023-05-25T04:50:52.260Z,514.00
2023-05-25T04:51:52.254Z,520.00
2023-05-25T04:52:52.540Z,517.00
2023-05-25T04:53:52.420Z,516.00
2023-05-25T04:54:52.233Z,516.00
2023-05-25T04:55:52.232Z,519.00
2023-05-25T04:56:52.233Z,520.00
2023-05-25T04:57:52.253Z,519.00
2023-05-25T04:58:52.432Z,518.00
2023-05-25T04:59:52.234Z,523.00
2023-05-25T05:00:52.792Z,522.00
2023-05-25T05:01:52.301Z,517.00
2023-05-25T05:02:52.258Z,518.00
2023-05-25T05:03:52.219Z,515.00
2023-05-25T05:04:52.189Z,520.00
2023-05-25T05:05:52.162Z,516.00
2023-05-25T05:06:52.130Z,519.00
2023-05-25T05:07:52.135Z,527.00
2023-05-25T05:08:52.170Z,525.00
2023-05-25T05:09:52.151Z,518.00
2023-05-25T05:10:52.138Z,522.00
2023-05-25T05:11:52.115Z,518.00
2023-05-25T05:12:52.491Z,518.00
2023-05-25T05:13:52.197Z,520.00
2023-05-25T05:14:52.381Z,521.00
2023-05-25T05:15:52.355Z,518.00
2023-05-25T05:16:52.234Z,514.00
2023-05-25T05:17:52.239Z,520.00
2023-05-25T05:18:52.188Z,517.00
2023-05-25T05:19:52.262Z,521.00
2023-05-25T05:20:52.524Z,518.00
2023-05-25T05:21:52.551Z,518.00
2023-05-25T05:22:52.381Z,514.00
2023-05-25T05:23:52.395Z,515.00
2023-05-25T05:24:52.490Z,516.00
2023-05-25T05:25:52.541Z,517.00
2023-05-25T05:26:58.280Z,512.00
2023-05-25T05:27:53.559Z,513.00
2023-05-25T05:28:52.539Z,514.00
2023-05-25T05:29:52.518Z,512.00
2023-05-25T05:30:52.542Z,514.00
2023-05-25T05:31:52.676Z,510.00
2023-05-25T05:32:52.545Z,517.00
2023-05-25T05:33:52.562Z,513.00
2023-05-25T05:34:52.497Z,516.00
2023-05-25T05:35:52.527Z,517.00
2023-05-25T05:36:57.283Z,520.00
2023-05-25T05:37:53.492Z,520.00
2023-05-25T05:38:52.533Z,521.00
2023-05-25T05:39:52.499Z,520.00
2023-05-25T05:40:52.489Z,575.00
2023-05-25T05:41:52.436Z,608.00
2023-05-25T05:42:52.451Z,585.00
2023-05-25T05:43:52.460Z,562.00
2023-05-25T05:44:52.436Z,561.00
2023-05-25T05:45:52.491Z,606.00
2023-05-25T05:46:52.625Z,623.00
2023-05-25T05:47:52.638Z,643.00
2023-05-25T05:48:52.666Z,649.00
2023-05-25T05:49:52.726Z,623.00
2023-05-25T05:50:52.781Z,618.00
2023-05-25T05:51:52.834Z,632.00
2023-05-25T05:52:52.907Z,630.00
2023-05-25T05:53:52.965Z,632.00
2023-05-25T05:54:52.943Z,630.00
2023-05-25T05:55:55.838Z,637.00
2023-05-25T05:56:53.083Z,642.00
2023-05-25T05:57:52.987Z,652.00
2023-05-25T05:58:52.989Z,658.00
2023-05-25T05:59:53.011Z,654.00
2023-05-25T06:00:52.938Z,655.00
2023-05-25T06:01:53.065Z,660.00
2023-05-25T06:02:53.072Z,669.00
2023-05-25T06:03:52.989Z,682.00
2023-05-25T06:04:53.046Z,683.00
2023-05-25T06:05:52.910Z,673.00
2023-05-25T06:06:53.063Z,666.00
2023-05-25T06:07:52.924Z,682.00
2023-05-25T06:08:52.886Z,694.00
2023-05-25T06:09:52.901Z,666.00
2023-05-25T06:10:52.925Z,666.00
2023-05-25T06:11:52.873Z,650.00
2023-05-25T06:12:53.064Z,671.00
2023-05-25T06:13:52.867Z,703.00
2023-05-25T06:14:52.948Z,716.00
2023-05-25T06:15:52.845Z,727.00
2023-05-25T06:16:52.829Z,715.00
2023-05-25T06:17:52.860Z,689.00
2023-05-25T06:18:52.901Z,671.00
2023-05-25T06:19:52.993Z,678.00
2023-05-25T06:20:52.825Z,686.00
2023-05-25T06:21:52.849Z,674.00
2023-05-25T06:22:52.801Z,665.00
2023-05-25T06:23:52.794Z,663.00
2023-05-25T06:24:52.797Z,666.00
2023-05-25T06:25:53.036Z,692.00
2023-05-25T06:26:52.814Z,711.00
2023-05-25T06:27:52.756Z,712.00
2023-05-25T06:28:52.781Z,699.00
2023-05-25T06:29:52.801Z,696.00
2023-05-25T06:30:52.854Z,718.00
2023-05-25T06:31:52.824Z,680.00
2023-05-25T06:32:52.819Z,647.00
2023-05-25T06:33:52.720Z,653.00
2023-05-25T06:34:52.710Z,661.00
2023-05-25T06:35:52.772Z,637.00
2023-05-25T06:36:52.960Z,644.00
2023-05-25T06:37:52.696Z,645.00
2023-05-25T06:38:52.690Z,636.00
2023-05-25T06:39:53.085Z,628.00
2023-05-25T06:40:52.721Z,616.00
2023-05-25T06:41:52.729Z,587.00
2023-05-25T06:42:52.679Z,567.00
2023-05-25T06:43:52.684Z,553.00
2023-05-25T06:44:52.675Z,544.00
2023-05-25T06:45:52.810Z,508.00
2023-05-25T06:46:52.691Z,507.00
2023-05-25T06:47:52.800Z,504.00
2023-05-25T06:48:52.671Z,500.00
2023-05-25T06:49:52.711Z,504.00
2023-05-25T06:50:52.638Z,500.00
2023-05-25T06:51:52.697Z,501.00
2023-05-25T06:52:52.627Z,500.00
2023-05-25T06:53:52.646Z,506.00
2023-05-25T06:54:52.619Z,506.00
2023-05-25T06:55:53.112Z,508.00
2023-05-25T06:56:52.684Z,495.00
2023-05-25T06:57:52.577Z,500.00
2023-05-25T06:58:52.558Z,503.00
2023-05-25T06:59:52.612Z,518.00
2023-05-25T07:00:52.544Z,511.00
2023-05-25T07:01:52.836Z,532.00
2023-05-25T07:02:52.731Z,537.00
2023-05-25T07:03:52.649Z,534.00
2023-05-25T07:04:52.598Z,554.00
2023-05-25T07:05:52.543Z,569.00
2023-05-25T07:06:52.586Z,570.00
2023-05-25T07:07:52.559Z,564.00
2023-05-25T07:08:52.549Z,532.00
2023-05-25T07:09:53.438Z,534.00
2023-05-25T07:10:52.527Z,523.00
2023-05-25T07:11:52.577Z,508.00
2023-05-25T07:12:53.003Z,500.00
2023-05-25T07:13:52.575Z,501.00
2023-05-25T07:14:52.621Z,508.00
2023-05-25T07:15:53.643Z,501.00
2023-05-25T07:16:52.593Z,500.00
2023-05-25T07:17:52.706Z,500.00
2023-05-25T07:18:52.689Z,500.00
2023-05-25T07:19:52.740Z,503.00
2023-05-25T07:20:52.622Z,500.00
2023-05-25T07:21:52.742Z,499.00
2023-05-25T07:22:53.485Z,503.00
2023-05-25T07:23:52.713Z,505.00
2023-05-25T07:24:52.757Z,592.00
2023-05-25T07:25:52.837Z,621.00
2023-05-25T07:26:52.874Z,608.00
2023-05-25T07:27:52.946Z,598.00
2023-05-25T07:28:52.953Z,617.00
2023-05-25T07:29:53.122Z,632.00
2023-05-25T07:30:53.072Z,646.00
2023-05-25T07:31:53.250Z,634.00
2023-05-25T07:32:53.260Z,600.00
2023-05-25T07:33:53.230Z,550.00
2023-05-25T07:34:53.286Z,523.00
2023-05-25T07:35:53.415Z,510.00
2023-05-25T07:36:53.332Z,505.00
2023-05-25T07:37:53.562Z,530.00
2023-05-25T07:38:53.481Z,549.00
2023-05-25T07:39:53.541Z,585.00
2023-05-25T07:41:02.150Z,589.00
2023-05-25T07:41:54.727Z,590.00
2023-05-25T07:42:54.000Z,597.00
2023-05-25T07:43:53.757Z,617.00
2023-05-25T07:44:53.720Z,651.00
2023-05-25T07:45:53.735Z,755.00
2023-05-25T07:46:53.897Z,849.00
2023-05-25T07:47:53.919Z,932.00
2023-05-25T07:48:54.420Z,979.00
2023-05-25T07:49:54.047Z,989.00
2023-05-25T07:50:54.023Z,1049.00
2023-05-25T07:51:54.026Z,1042.00
2023-05-25T07:52:54.616Z,1098.00
2023-05-25T07:53:54.148Z,1277.00
2023-05-25T07:54:54.171Z,1677.00
2023-05-25T07:55:54.194Z,1762.00
2023-05-25T07:56:54.168Z,1664.00
2023-05-25T07:57:54.178Z,1589.00
2023-05-25T07:58:54.220Z,1588.00
2023-05-25T07:59:54.338Z,1590.00
2023-05-25T08:00:55.075Z,1570.00
2023-05-25T08:01:54.214Z,1552.00
2023-05-25T08:02:54.268Z,1591.00
2023-05-25T08:03:54.314Z,1593.00
2023-05-25T08:04:54.172Z,1616.00
2023-05-25T08:05:54.186Z,1650.00
2023-05-25T08:06:54.203Z,1699.00
2023-05-25T08:07:54.343Z,1692.00
2023-05-25T08:08:54.487Z,1731.00
2023-05-25T08:09:54.462Z,1750.00
2023-05-25T08:10:57.076Z,1759.00
2023-05-25T08:12:03.749Z,1770.00
2023-05-25T08:12:56.696Z,1772.00
2023-05-25T08:13:55.345Z,1772.00
2023-05-25T08:14:54.389Z,1779.00
2023-05-25T08:15:54.498Z,1799.00
2023-05-25T08:16:54.412Z,1815.00
2023-05-25T08:17:54.407Z,1842.00
2023-05-25T08:18:54.384Z,1849.00
2023-05-25T08:19:54.390Z,1834.00
2023-05-25T08:20:54.337Z,1844.00
2023-05-25T08:21:54.275Z,1857.00
2023-05-25T08:22:54.352Z,1876.00
2023-05-25T08:23:54.309Z,1890.00
2023-05-25T08:24:54.382Z,1910.00
2023-05-25T08:25:54.317Z,1917.00
2023-05-25T08:26:55.145Z,1921.00
2023-05-25T08:27:54.263Z,1942.00
2023-05-25T08:28:54.528Z,1964.00
2023-05-25T08:29:54.235Z,1955.00
2023-05-25T08:30:54.329Z,1884.00
2023-05-25T08:31:54.253Z,1862.00
2023-05-25T08:32:54.302Z,1799.00
2023-05-25T08:33:54.313Z,1820.00
2023-05-25T08:34:54.229Z,1830.00
2023-05-25T08:35:54.227Z,1854.00
2023-05-25T08:36:54.231Z,1847.00
2023-05-25T08:37:54.535Z,1852.00
2023-05-25T08:38:54.249Z,1861.00
2023-05-25T08:39:54.576Z,1859.00
2023-05-25T08:40:55.504Z,1859.00
2023-05-25T08:41:54.447Z,1855.00
2023-05-25T08:42:54.231Z,1806.00
2023-05-25T08:43:54.177Z,1735.00
2023-05-25T08:44:54.209Z,1707.00
2023-05-25T08:45:54.438Z,1665.00
2023-05-25T08:46:54.211Z,1673.00
2023-05-25T08:47:54.385Z,1694.00
2023-05-25T08:48:54.384Z,1711.00
2023-05-25T08:49:54.578Z,1718.00
2023-05-25T08:50:54.558Z,1732.00
2023-05-25T08:51:54.479Z,1751.00
2023-05-25T08:52:54.472Z,1764.00
2023-05-25T08:53:54.550Z,1623.00
2023-05-25T08:54:55.057Z,1674.00
2023-05-25T08:55:54.628Z,1638.00
2023-05-25T08:56:54.798Z,1665.00
2023-05-25T08:57:54.711Z,1699.00
2023-05-25T08:58:54.820Z,1733.00
2023-05-25T08:59:55.085Z,1738.00
2023-05-25T09:00:55.245Z,1742.00
2023-05-25T09:01:54.897Z,1732.00
2023-05-25T09:02:55.005Z,1717.00
2023-05-25T09:03:55.056Z,1712.00
2023-05-25T09:04:54.960Z,1717.00
2023-05-25T09:05:54.978Z,1729.00
2023-05-25T09:07:08.873Z,1753.00
2023-05-25T09:07:56.019Z,1754.00
2023-05-25T09:08:55.099Z,1759.00
2023-05-25T09:09:55.018Z,1767.00
2023-05-25T09:10:55.109Z,1779.00
2023-05-25T09:11:55.246Z,1798.00
2023-05-25T09:12:55.165Z,1858.00
2023-05-25T09:13:54.986Z,1857.00
2023-05-25T09:14:54.936Z,2176.00
2023-05-25T09:15:54.954Z,2085.00
2023-05-25T09:16:55.518Z,2113.00
2023-05-25T09:17:54.962Z,2087.00
2023-05-25T09:18:58.993Z,2142.00
2023-05-25T09:19:55.195Z,2143.00
2023-05-25T09:20:55.245Z,2145.00
2023-05-25T09:22:03.087Z,2146.00
2023-05-25T09:22:55.901Z,2144.00
2023-05-25T09:23:54.901Z,2147.00
2023-05-25T09:24:54.874Z,2150.00
2023-05-25T09:25:54.865Z,2156.00
2023-05-25T09:26:54.892Z,2165.00
2023-05-25T09:27:54.895Z,2158.00
2023-05-25T09:28:54.928Z,2160.00
2023-05-25T09:29:54.864Z,2160.00
2023-05-25T09:30:54.862Z,2162.00
2023-05-25T09:31:55.087Z,2156.00
2023-05-25T09:32:55.142Z,2141.00
2023-05-25T09:33:55.264Z,1591.00
2023-05-25T09:34:54.865Z,1323.00
2023-05-25T09:35:54.805Z,1054.00
2023-05-25T09:36:55.152Z,939.00
2023-05-25T09:37:54.888Z,903.00
2023-05-25T09:38:55.103Z,845.00
2023-05-25T09:39:54.797Z,918.00
2023-05-25T09:40:54.906Z,962.00
2023-05-25T09:41:54.801Z,980.00
2023-05-25T09:42:54.815Z,997.00
2023-05-25T09:44:09.710Z,885.00
2023-05-25T09:44:55.793Z,689.00
2023-05-25T09:45:54.804Z,674.00
2023-05-25T09:46:54.724Z,609.00
2023-05-25T09:47:54.838Z,564.00
2023-05-25T09:48:54.744Z,547.00
2023-05-25T09:49:54.691Z,518.00
2023-05-25T09:50:54.700Z,509.00
2023-05-25T09:51:54.710Z,516.00
2023-05-25T09:52:54.682Z,493.00
2023-05-25T09:53:54.894Z,510.00
2023-05-25T09:54:54.672Z,504.00
2023-05-25T09:55:54.798Z,507.00
2023-05-25T09:56:55.050Z,534.00
2023-05-25T09:57:54.749Z,556.00
2023-05-25T09:58:54.650Z,580.00
2023-05-25T09:59:54.661Z,601.00
2023-05-25T10:00:54.722Z,620.00
2023-05-25T10:01:54.801Z,642.00
2023-05-25T10:02:54.754Z,656.00
2023-05-25T10:04:04.213Z,658.00
2023-05-25T10:04:55.672Z,658.00
2023-05-25T10:05:54.565Z,673.00
2023-05-25T10:06:54.580Z,741.00
2023-05-25T10:07:54.587Z,869.00
2023-05-25T10:08:54.590Z,1024.00
2023-05-25T10:09:54.602Z,1093.00
2023-05-25T10:10:54.544Z,1099.00
2023-05-25T10:11:54.577Z,1176.00
2023-05-25T10:12:54.556Z,1264.00
2023-05-25T10:13:54.505Z,1277.00
2023-05-25T10:14:54.548Z,1332.00
2023-05-25T10:15:54.673Z,1358.00
2023-05-25T10:16:54.542Z,1359.00
2023-05-25T10:17:54.553Z,1333.00
2023-05-25T10:18:54.554Z,1356.00
2023-05-25T10:19:54.566Z,1377.00
2023-05-25T10:20:54.557Z,1394.00
2023-05-25T10:21:54.495Z,1433.00
2023-05-25T10:22:54.518Z,1437.00
2023-05-25T10:23:54.519Z,1172.00
2023-05-25T10:24:54.486Z,948.00
2023-05-25T10:25:54.474Z,931.00
2023-05-25T10:26:54.459Z,850.00
2023-05-25T10:27:54.700Z,868.00
2023-05-25T10:28:54.444Z,805.00
2023-05-25T10:29:54.429Z,738.00
2023-05-25T10:30:54.399Z,643.00
2023-05-25T10:31:54.430Z,637.00
2023-05-25T10:32:54.483Z,661.00
2023-05-25T10:33:54.418Z,696.00
2023-05-25T10:34:54.990Z,671.00
2023-05-25T10:36:02.995Z,774.00
2023-05-25T10:36:55.403Z,778.00
2023-05-25T10:37:57.029Z,795.00
2023-05-25T10:38:54.418Z,839.00
2023-05-25T10:39:54.380Z,923.00
2023-05-25T10:40:54.419Z,1086.00
2023-05-25T10:41:54.357Z,1134.00
2023-05-25T10:42:54.334Z,1173.00
2023-05-25T10:43:54.303Z,1219.00
2023-05-25T10:44:54.352Z,1269.00
2023-05-25T10:45:55.518Z,1312.00
2023-05-25T10:46:54.598Z,1362.00
2023-05-25T10:47:54.380Z,1388.00
2023-05-25T10:48:54.308Z,1408.00
2023-05-25T10:49:54.407Z,1422.00
2023-05-25T10:50:55.311Z,1439.00
2023-05-25T10:51:54.442Z,1473.00
2023-05-25T10:52:54.234Z,1505.00
2023-05-25T10:53:54.345Z,1541.00
2023-05-25T10:54:54.258Z,1546.00
2023-05-25T10:55:54.362Z,1562.00
2023-05-25T10:56:54.210Z,1569.00
2023-05-25T10:57:54.366Z,1576.00
2023-05-25T10:58:54.235Z,1578.00
2023-05-25T10:59:54.458Z,1587.00
2023-05-25T11:00:54.246Z,1611.00
2023-05-25T11:01:54.700Z,1637.00
2023-05-25T11:02:54.589Z,1667.00
2023-05-25T11:03:54.281Z,1808.00
2023-05-25T11:04:54.183Z,1849.00
2023-05-25T11:05:54.148Z,1847.00
2023-05-25T11:06:54.193Z,1839.00
2023-05-25T11:07:54.198Z,1832.00
2023-05-25T11:08:54.143Z,1839.00
2023-05-25T11:09:55.097Z,1830.00
2023-05-25T11:10:54.223Z,1778.00
2023-05-25T11:11:54.162Z,1761.00
2023-05-25T11:12:54.142Z,1748.00
2023-05-25T11:13:54.119Z,1645.00
2023-05-25T11:14:54.090Z,1617.00
2023-05-25T11:15:54.128Z,1564.00
2023-05-25T11:16:54.159Z,1493.00
2023-05-25T11:17:54.127Z,1460.00
2023-05-25T11:18:54.471Z,1388.00
2023-05-25T11:19:54.221Z,1317.00
2023-05-25T11:20:54.154Z,1290.00
2023-05-25T11:21:54.077Z,1273.00
2023-05-25T11:22:54.142Z,1298.00
2023-05-25T11:23:54.034Z,1279.00
2023-05-25T11:24:54.065Z,1315.00
2023-05-25T11:25:54.057Z,1295.00
2023-05-25T11:26:54.001Z,1290.00
2023-05-25T11:27:54.024Z,1289.00
2023-05-25T11:28:54.168Z,1303.00
2023-05-25T11:29:54.105Z,1302.00
2023-05-25T11:30:54.016Z,1292.00
2023-05-25T11:31:54.118Z,1305.00
2023-05-25T11:32:54.046Z,1275.00
2023-05-25T11:33:53.969Z,1269.00
2023-05-25T11:34:54.037Z,1236.00
2023-05-25T11:35:53.989Z,1266.00
2023-05-25T11:36:53.966Z,1241.00
2023-05-25T11:37:54.006Z,1196.00
2023-05-25T11:39:06.370Z,1181.00
2023-05-25T11:39:54.993Z,1182.00
2023-05-25T11:40:53.993Z,1169.00
2023-05-25T11:41:53.960Z,1185.00
2023-05-25T11:42:53.965Z,1175.00
2023-05-25T11:43:53.977Z,1226.00
2023-05-25T11:44:53.993Z,1159.00
2023-05-25T11:45:53.912Z,1141.00
2023-05-25T11:46:53.921Z,1119.00
2023-05-25T11:47:53.919Z,1116.00
2023-05-25T11:48:53.897Z,1111.00
2023-05-25T11:49:53.958Z,1102.00
2023-05-25T11:50:53.888Z,1098.00
2023-05-25T11:51:53.879Z,1136.00
2023-05-25T11:52:53.885Z,1155.00
2023-05-25T11:53:54.060Z,1134.00
2023-05-25T11:54:54.157Z,1091.00
2023-05-25T11:56:03.597Z,1043.00
2023-05-25T11:56:54.906Z,1043.00
2023-05-25T11:57:54.014Z,1044.00
2023-05-25T11:58:53.895Z,1039.00
2023-05-25T11:59:53.887Z,1033.00
2023-05-25T12:00:53.858Z,1037.00
2023-05-25T12:01:53.815Z,1067.00
2023-05-25T12:02:53.915Z,1052.00
2023-05-25T12:03:53.967Z,1031.00
2023-05-25T12:04:53.866Z,1018.00
2023-05-25T12:05:53.916Z,998.00
2023-05-25T12:06:53.961Z,989.00
2023-05-25T12:07:53.788Z,991.00
2023-05-25T12:08:53.782Z,1010.00
2023-05-25T12:09:53.785Z,1009.00
2023-05-25T12:10:53.780Z,988.00
2023-05-25T12:11:53.750Z,978.00
2023-05-25T12:12:53.722Z,949.00
2023-05-25T12:13:53.861Z,962.00
2023-05-25T12:14:53.822Z,955.00
2023-05-25T12:15:53.704Z,1041.00
2023-05-25T12:16:53.762Z,1037.00
2023-05-25T12:17:54.188Z,1008.00
2023-05-25T12:18:53.758Z,941.00
2023-05-25T12:19:53.789Z,885.00
2023-05-25T12:20:53.800Z,863.00
2023-05-25T12:21:53.733Z,839.00